Aérodrome :
LOGIN :

S'inscrire | Disclaimer

   EN    FR    IT 

 










Légende :    VFR   VFR Marginal   IFR   IFR Intensif   IFR Très Intensif
Visi : 
Plafond : 
>= 8 km
>= 3000ft
5 à 8 km
1000 à 3000 ft
1500m à 5 km
500 à 1000 ft
800 à 1500m
200 à 500 ft
< 800m
< 200 ft
Symboles :   Orages  Brouillard  Fortes neiges  Fortes précipitations  Vent > 20 kt
SIGMETs :   Divers  Orages  Givrage  Turbulence  Onde Orograph.  Cendres Volcan.







- Altitude de l'aérodrome : 412 ft
- Code IATA : ORE
- Voir les cartes d'approche


LFOJ - Orleans

DERNIER METAR :
  • 200800Z AUTO 01006KT 330V040 9999 BKN016 BKN021 BKN096 14/11 Q1011 NOSIG

METARs EXPIRÉS :
  • 200730Z AUTO 34007KT 9000 SCT010 BKN014 BKN076 13/10 Q1011 BECMG BKN025
  • 200700Z AUTO 33006KT 6000 FEW008 SCT030 BKN045 12/11 Q1011 TEMPO 2000 BR OVC005
  • 200630Z AUTO 34006KT 4700 BR FEW006 SCT026 BKN078 12/11 Q1010 TEMPO OVC005 BECMG 9999 NSW
  • 200600Z AUTO 34005KT 3600 BR FEW005 BKN048 OVC076 12/11 Q1010 BECMG 2000 BR OVC005
  • 200530Z AUTO 34006KT 3000 BR SCT005 BKN010 OVC052 11/11 Q1010 NOSIG

TAF AMD TAF LFOJ
Valide du 20 à 05h jusqu'au 21 à 03h UTC


200500Z 2005/2103 35006KT 2000 BR OVC005
BECMG 2008/2010 9999 NSW BKN025
TEMPO 2010/2022 4000 -SHRA SCT030TCU
PROB40
TEMPO 2013/2021 34015G25KT 2000 TSRA SCT025CB
TEMPO 2100/2103 3000 BR
Pas de NOTAMs connus pour ce terrain.



MET'MAP, la Météo Aéronautique d'un coup d'oeil ! - Copyright ORBIFLY Décembre 2007 - Disclaimer

ORBIFLY MET'MAP TEAM :

Programmation & Développement : Alexandra Zaïnal
Conception & Développement : Baudouin d'Aumeries
Co-Programmation & Développement : Marc-Olivier Méhu
Soutien technique & logistique : Manuel Goepfert

Contact : metmap@orbifly.com




SOURCES & CREDITS :

   NOAA